Time;durP1;ratioP1;P1;durP2;ratioP2;P2;SDS_P1;SDS_P2;PMS_P1;PMS_P2;Temp;Humidity;BMP_temperature;BMP_pressure;BME280_temperature;BME280_humidity;BME280_pressure;Samples;Min_cycle;Max_cycle;Signal;HPM_P1;HPM_P2
2023/08/26 00:00:26;;;;;;;24.70;19.47;;;27.60;72.10;;;;;;5014926;28;20445;-83
2023/08/26 00:02:56;;;;;;;22.57;18.97;;;27.50;72.00;;;;;;5015376;28;20415;-83
2023/08/26 00:05:24;;;;;;;21.80;18.27;;;27.50;71.60;;;;;;5014784;28;20496;-83
2023/08/26 00:07:52;;;;;;;22.67;18.67;;;27.50;71.60;;;;;;5015289;28;20515;-83
2023/08/26 00:10:21;;;;;;;22.30;17.90;;;27.50;71.90;;;;;;5007590;28;20462;-83
2023/08/26 00:12:49;;;;;;;21.80;18.57;;;27.50;71.70;;;;;;5015334;28;20472;-83
2023/08/26 00:15:17;;;;;;;20.37;18.00;;;27.50;72.40;;;;;;5014349;28;20464;-83
2023/08/26 00:17:45;;;;;;;21.83;18.20;;;27.50;71.60;;;;;;5014704;28;20443;-83
2023/08/26 00:20:15;;;;;;;22.53;17.77;;;27.40;71.30;;;;;;5014739;28;20419;-83
2023/08/26 00:22:44;;;;;;;21.10;17.30;;;27.40;71.60;;;;;;5014574;28;20446;-82
2023/08/26 00:25:12;;;;;;;19.50;17.10;;;27.50;71.60;;;;;;5014686;28;20518;-83
2023/08/26 00:27:40;;;;;;;18.50;16.30;;;27.50;71.40;;;;;;5015958;28;20472;-84
2023/08/26 00:30:09;;;;;;;18.77;15.83;;;27.50;71.40;;;;;;5014750;28;20477;-84
2023/08/26 00:32:37;;;;;;;21.97;16.80;;;27.50;71.20;;;;;;5015523;28;20454;-84
2023/08/26 00:35:05;;;;;;;18.67;16.00;;;27.40;70.70;;;;;;5014690;28;20437;-83
2023/08/26 00:37:35;;;;;;;20.23;16.10;;;27.40;71.00;;;;;;5016474;28;20411;-83
2023/08/26 00:40:03;;;;;;;20.47;17.00;;;27.40;71.60;;;;;;5016014;28;20483;-82
2023/08/26 00:42:35;;;;;;;19.20;16.50;;;27.40;70.90;;;;;;5015834;28;20423;-82
2023/08/26 00:45:04;;;;;;;19.10;15.90;;;27.40;70.80;;;;;;5022902;28;20447;-84
2023/08/26 00:47:32;;;;;;;20.47;16.73;;;27.40;70.60;;;;;;5029825;28;20445;-83
2023/08/26 00:50:01;;;;;;;17.77;15.80;;;27.40;70.70;;;;;;5023547;28;20506;-83
2023/08/26 00:52:28;;;;;;;18.20;15.43;;;27.40;70.60;;;;;;5018724;28;20481;-83
2023/08/26 00:54:58;;;;;;;17.97;15.30;;;27.50;70.50;;;;;;5020004;28;20458;-84
2023/08/26 00:57:26;;;;;;;16.50;14.43;;;27.40;70.40;;;;;;5019886;28;20427;-83
2023/08/26 00:59:54;;;;;;;19.90;16.10;;;27.40;70.40;;;;;;5019400;28;20423;-83
2023/08/26 01:02:22;;;;;;;18.47;15.10;;;27.40;70.80;;;;;;5019708;28;20427;-83
2023/08/26 01:04:50;;;;;;;16.00;14.33;;;27.40;70.20;;;;;;5019685;28;20506;-84
2023/08/26 01:07:18;;;;;;;17.80;14.77;;;27.40;70.20;;;;;;5019559;28;20442;-83
2023/08/26 01:09:47;;;;;;;19.13;14.60;;;27.40;70.30;;;;;;5019171;28;20441;-85
2023/08/26 01:12:28;;;;;;;17.37;14.47;;;27.40;70.30;;;;;;5019084;28;20427;-84
2023/08/26 01:14:59;;;;;;;16.90;14.53;;;27.40;70.20;;;;;;5019008;28;20477;-83
2023/08/26 01:17:27;;;;;;;15.90;14.20;;;27.40;70.00;;;;;;5019235;28;20587;-83
2023/08/26 01:19:56;;;;;;;15.33;13.70;;;27.40;70.00;;;;;;5019549;28;20422;-83
2023/08/26 01:22:24;;;;;;;15.50;13.83;;;27.30;69.90;;;;;;5014167;28;20444;-83
2023/08/26 01:24:53;;;;;;;14.53;13.00;;;27.30;70.00;;;;;;5013097;28;20451;-83
2023/08/26 01:27:21;;;;;;;15.93;14.23;;;27.30;69.70;;;;;;5013412;28;20432;-83
2023/08/26 01:29:49;;;;;;;16.03;13.60;;;27.30;69.50;;;;;;5013550;28;20469;-84
2023/08/26 01:32:19;;;;;;;14.37;12.87;;;27.30;69.70;;;;;;5014088;28;20452;-83
2023/08/26 01:34:48;;;;;;;15.40;12.47;;;27.30;69.50;;;;;;5014388;28;20472;-82
2023/08/26 01:37:17;;;;;;;16.00;14.30;;;27.30;69.80;;;;;;5013665;28;20438;-83
2023/08/26 01:39:44;;;;;;;15.73;13.70;;;27.30;69.90;;;;;;5014267;28;20453;-83
2023/08/26 01:42:14;;;;;;;14.67;12.93;;;27.30;69.70;;;;;;5014397;28;20411;-83
2023/08/26 01:44:42;;;;;;;17.30;13.97;;;27.30;69.40;;;;;;5014483;28;20419;-83
2023/08/26 01:47:09;;;;;;;16.17;13.87;;;27.30;69.50;;;;;;5013413;28;20530;-83
2023/08/26 01:49:37;;;;;;;17.30;15.50;;;27.30;69.50;;;;;;5004733;28;20455;-82
2023/08/26 01:52:06;;;;;;;15.97;14.27;;;27.30;69.30;;;;;;5013120;28;20514;-83
2023/08/26 01:54:34;;;;;;;17.50;15.33;;;27.30;69.30;;;;;;5012205;28;20547;-83
2023/08/26 01:57:02;;;;;;;17.80;15.57;;;27.30;69.20;;;;;;5012070;28;20447;-83
2023/08/26 01:59:31;;;;;;;16.93;15.13;;;27.20;69.10;;;;;;5012252;28;20445;-83
2023/08/26 02:02:00;;;;;;;17.07;14.63;;;27.20;69.00;;;;;;5012164;28;20507;-83
2023/08/26 02:04:28;;;;;;;17.90;15.27;;;27.20;69.00;;;;;;5012616;28;20436;-83
2023/08/26 02:06:56;;;;;;;17.87;15.50;;;27.20;68.90;;;;;;5012075;28;20538;-83
2023/08/26 02:09:23;;;;;;;17.70;15.20;;;27.20;68.90;;;;;;5006917;28;20428;-83
2023/08/26 02:11:51;;;;;;;18.10;15.20;;;27.20;68.70;;;;;;5004836;28;20450;-83
2023/08/26 02:14:19;;;;;;;17.60;15.70;;;27.20;69.00;;;;;;5011956;28;20504;-81
2023/08/26 02:16:48;;;;;;;16.83;14.30;;;27.30;68.90;;;;;;5012030;28;20529;-83
2023/08/26 02:19:16;;;;;;;17.80;14.83;;;27.20;68.80;;;;;;5011928;28;20483;-83
2023/08/26 02:21:43;;;;;;;16.77;14.73;;;27.20;68.70;;;;;;5011855;28;20519;-81
2023/08/26 02:24:12;;;;;;;18.30;14.93;;;27.20;68.70;;;;;;5011994;28;20519;-83
2023/08/26 02:26:39;;;;;;;15.77;14.13;;;27.20;68.70;;;;;;5011639;28;20999;-83
2023/08/26 02:29:07;;;;;;;16.17;14.47;;;27.20;68.50;;;;;;5011612;28;20472;-83
2023/08/26 02:31:35;;;;;;;16.53;14.33;;;27.20;68.50;;;;;;5011705;28;20422;-83
2023/08/26 02:34:05;;;;;;;19.00;14.67;;;27.20;68.60;;;;;;5011287;28;20878;-83
2023/08/26 02:36:33;;;;;;;16.67;13.60;;;27.10;68.30;;;;;;5011448;28;20450;-83
2023/08/26 02:39:01;;;;;;;16.10;14.40;;;27.10;68.30;;;;;;5011578;28;20445;-83
2023/08/26 02:41:29;;;;;;;16.77;14.20;;;27.10;68.60;;;;;;5011552;28;20495;-82
2023/08/26 02:43:57;;;;;;;14.63;13.00;;;27.10;68.60;;;;;;5006146;28;21035;-83
2023/08/26 02:46:25;;;;;;;16.47;13.90;;;27.10;68.40;;;;;;5009509;28;20430;-83
2023/08/26 02:48:53;;;;;;;15.30;13.70;;;27.10;68.20;;;;;;5011756;28;20509;-83
2023/08/26 02:51:22;;;;;;;15.00;13.40;;;27.10;68.30;;;;;;5011370;28;20451;-83
2023/08/26 02:53:50;;;;;;;14.60;13.07;;;27.10;68.20;;;;;;5012893;28;20467;-83
2023/08/26 02:56:18;;;;;;;15.67;13.73;;;27.10;68.30;;;;;;5012818;28;20469;-83
2023/08/26 02:58:46;;;;;;;14.97;13.37;;;27.10;68.10;;;;;;5012145;28;20438;-83
2023/08/26 03:01:16;;;;;;;14.80;12.90;;;27.10;68.20;;;;;;5012059;28;20419;-83
2023/08/26 03:03:44;;;;;;;14.40;12.63;;;27.00;68.10;;;;;;5017270;28;20436;-84
2023/08/26 03:06:12;;;;;;;15.40;12.67;;;27.00;68.10;;;;;;5029439;28;20450;-83
2023/08/26 03:08:41;;;;;;;14.93;13.33;;;27.00;67.80;;;;;;5025914;28;20415;-83
2023/08/26 03:11:10;;;;;;;14.40;12.90;;;27.00;67.90;;;;;;5025293;28;20399;-84
2023/08/26 03:13:37;;;;;;;15.80;12.93;;;27.00;67.90;;;;;;5024451;28;20439;-84
2023/08/26 03:16:09;;;;;;;15.83;12.30;;;27.00;67.90;;;;;;5028003;28;20522;-83
2023/08/26 03:18:39;;;;;;;13.97;12.07;;;27.00;67.90;;;;;;5031329;28;20407;-84
2023/08/26 03:21:07;;;;;;;13.30;11.90;;;27.00;67.90;;;;;;5032639;28;20411;-84
2023/08/26 03:23:35;;;;;;;12.23;10.93;;;27.00;67.90;;;;;;5029000;28;20438;-82
2023/08/26 03:26:04;;;;;;;12.97;11.57;;;27.00;67.80;;;;;;5027005;28;20452;-83
2023/08/26 03:28:32;;;;;;;13.33;11.90;;;27.00;67.80;;;;;;5025992;28;20441;-83
2023/08/26 03:31:04;;;;;;;13.00;11.67;;;27.00;67.60;;;;;;5027703;28;20466;-84
2023/08/26 03:33:34;;;;;;;12.60;11.33;;;27.00;67.50;;;;;;5017336;28;20418;-84
2023/08/26 03:36:03;;;;;;;12.77;11.47;;;27.00;67.60;;;;;;5016444;28;20549;-83
2023/08/26 03:38:32;;;;;;;12.60;10.50;;;26.90;67.60;;;;;;5015468;28;20457;-84
2023/08/26 03:41:03;;;;;;;12.87;11.30;;;26.90;67.50;;;;;;5016547;28;20423;-84
2023/08/26 03:43:32;;;;;;;13.27;11.50;;;26.90;67.50;;;;;;5014481;28;20450;-84
2023/08/26 03:46:00;;;;;;;12.30;11.10;;;26.90;67.60;;;;;;5016126;28;20534;-84
2023/08/26 03:48:28;;;;;;;12.47;10.60;;;26.90;67.60;;;;;;5014335;28;20411;-84
2023/08/26 03:50:57;;;;;;;12.47;11.17;;;26.90;67.40;;;;;;5014983;28;20483;-84
2023/08/26 03:53:25;;;;;;;11.77;10.50;;;26.90;67.30;;;;;;5013531;28;20981;-85
2023/08/26 03:55:53;;;;;;;11.97;10.77;;;26.90;67.30;;;;;;5014995;28;20450;-85
2023/08/26 03:58:22;;;;;;;13.47;11.20;;;26.90;67.50;;;;;;5013377;28;20470;-84
2023/08/26 04:00:50;;;;;;;11.80;10.60;;;26.90;67.40;;;;;;5021113;28;20427;-85
2023/08/26 04:03:18;;;;;;;11.60;10.50;;;26.80;67.30;;;;;;5027370;28;20415;-84
2023/08/26 04:05:46;;;;;;;14.53;10.83;;;26.80;67.30;;;;;;5018134;28;20505;-85
2023/08/26 04:08:14;;;;;;;11.20;10.10;;;26.80;67.10;;;;;;5021006;28;20511;-85
2023/08/26 04:10:42;;;;;;;12.37;11.07;;;26.80;67.20;;;;;;5020904;28;20443;-85
2023/08/26 04:13:20;;;;;;;10.93;9.90;;;26.80;67.30;;;;;;5020136;28;20422;-85
2023/08/26 04:15:49;;;;;;;11.20;10.10;;;26.80;67.20;;;;;;5013140;28;20446;-85
2023/08/26 04:18:17;;;;;;;10.57;9.50;;;26.70;67.20;;;;;;5022347;28;20453;-86
2023/08/26 04:20:45;;;;;;;11.50;10.33;;;26.80;67.30;;;;;;5015719;28;20423;-86
2023/08/26 04:23:13;;;;;;;13.53;10.30;;;26.70;67.20;;;;;;5024082;28;20436;-86
2023/08/26 04:25:41;;;;;;;10.30;9.30;;;26.70;67.30;;;;;;5024914;28;20615;-86
2023/08/26 04:28:09;;;;;;;11.03;9.87;;;26.70;67.10;;;;;;5025332;28;20424;-85
2023/08/26 04:30:37;;;;;;;10.20;9.20;;;26.60;67.10;;;;;;5024490;28;20419;-86
2023/08/26 04:33:06;;;;;;;9.40;8.50;;;26.60;67.00;;;;;;5024566;28;20426;-86
2023/08/26 04:35:34;;;;;;;10.77;9.67;;;26.60;67.10;;;;;;5022468;28;20487;-84
2023/08/26 04:38:03;;;;;;;10.60;9.20;;;26.60;67.00;;;;;;5021225;28;20411;-84
2023/08/26 04:40:30;;;;;;;10.10;9.10;;;26.60;67.00;;;;;;5022701;28;20462;-84
2023/08/26 04:42:58;;;;;;;9.57;8.67;;;26.50;66.70;;;;;;5023186;28;20491;-85
2023/08/26 04:45:26;;;;;;;9.77;8.87;;;26.50;67.00;;;;;;5022774;28;20427;-84
2023/08/26 04:47:54;;;;;;;9.97;8.97;;;26.50;67.00;;;;;;5023399;28;20526;-85
2023/08/26 04:50:25;;;;;;;10.13;9.13;;;26.50;67.10;;;;;;5023408;28;20421;-85
2023/08/26 04:52:53;;;;;;;9.20;8.30;;;26.50;66.80;;;;;;5025571;28;20475;-85
2023/08/26 04:55:21;;;;;;;10.23;9.33;;;26.50;67.00;;;;;;5023814;28;20463;-86
2023/08/26 04:57:48;;;;;;;9.50;8.60;;;26.50;66.80;;;;;;5022939;28;20443;-84
2023/08/26 05:00:17;;;;;;;9.97;9.07;;;26.40;66.90;;;;;;5022192;28;20440;-83
2023/08/26 05:02:45;;;;;;;9.63;8.63;;;26.40;66.80;;;;;;5023637;28;20436;-84
2023/08/26 05:05:14;;;;;;;9.80;8.80;;;26.40;66.80;;;;;;5021549;28;20528;-85
2023/08/26 05:07:43;;;;;;;9.90;8.90;;;26.40;66.70;;;;;;5016908;28;20451;-83
2023/08/26 05:10:11;;;;;;;10.03;9.03;;;26.40;66.60;;;;;;5022157;28;20472;-83
2023/08/26 05:12:39;;;;;;;9.67;8.77;;;26.40;67.30;;;;;;5023236;28;20415;-85
2023/08/26 05:15:08;;;;;;;8.63;7.80;;;26.40;66.50;;;;;;5022439;28;20427;-83
2023/08/26 05:17:35;;;;;;;10.43;8.00;;;26.40;66.70;;;;;;5023961;28;20447;-82
2023/08/26 05:20:04;;;;;;;8.80;8.00;;;26.40;66.60;;;;;;5022598;28;20452;-86
2023/08/26 05:22:32;;;;;;;8.00;7.30;;;26.40;66.50;;;;;;5020751;28;20457;-86
2023/08/26 05:25:02;;;;;;;9.93;8.83;;;26.40;66.20;;;;;;5019768;28;20423;-86
2023/08/26 05:27:30;;;;;;;8.70;7.23;;;26.30;66.40;;;;;;5018401;28;20419;-85
2023/08/26 05:29:58;;;;;;;9.27;8.30;;;26.30;66.40;;;;;;5016653;28;20471;-86
2023/08/26 05:32:26;;;;;;;8.90;8.03;;;26.30;66.30;;;;;;5019068;28;20436;-87
2023/08/26 05:34:54;;;;;;;9.00;7.90;;;26.30;66.30;;;;;;5015439;28;20424;-83
2023/08/26 05:37:22;;;;;;;9.30;8.23;;;26.30;66.20;;;;;;5021790;28;20498;-84
2023/08/26 05:39:50;;;;;;;9.43;8.17;;;26.30;66.20;;;;;;5021174;28;20403;-83
2023/08/26 05:42:19;;;;;;;8.07;7.33;;;26.30;66.00;;;;;;5020846;28;20447;-84
2023/08/26 05:44:47;;;;;;;7.87;7.17;;;26.30;66.10;;;;;;5022297;28;20411;-82
2023/08/26 05:47:15;;;;;;;8.87;7.97;;;26.30;66.20;;;;;;5020103;28;20407;-82
2023/08/26 05:49:44;;;;;;;7.97;7.27;;;26.30;66.00;;;;;;5018188;28;20447;-81
2023/08/26 05:52:12;;;;;;;8.20;7.47;;;26.30;65.90;;;;;;5021897;28;20441;-84
2023/08/26 05:54:40;;;;;;;8.43;7.63;;;26.30;65.90;;;;;;5021164;28;20414;-83
2023/08/26 05:57:10;;;;;;;8.00;7.30;;;26.40;65.80;;;;;;5022297;28;20479;-84
2023/08/26 05:59:40;;;;;;;9.30;6.90;;;26.30;65.70;;;;;;5021169;28;20452;-83
2023/08/26 06:02:08;;;;;;;8.97;7.10;;;26.40;65.90;;;;;;5023541;28;20427;-86
2023/08/26 06:04:36;;;;;;;8.27;7.47;;;26.40;65.80;;;;;;5024877;28;20445;-84
2023/08/26 06:07:04;;;;;;;9.57;7.77;;;26.40;65.50;;;;;;5024672;28;20471;-83
2023/08/26 06:09:33;;;;;;;8.30;7.50;;;26.40;65.60;;;;;;5023729;28;20483;-84
2023/08/26 06:12:01;;;;;;;7.80;7.10;;;26.50;65.70;;;;;;5021685;28;20508;-83
2023/08/26 06:14:29;;;;;;;7.80;7.00;;;26.50;65.80;;;;;;5020210;28;20440;-83
2023/08/26 06:16:58;;;;;;;8.00;7.30;;;26.50;65.60;;;;;;5019475;28;20512;-84
2023/08/26 06:19:26;;;;;;;7.63;6.93;;;26.50;66.00;;;;;;5018507;28;20415;-84
2023/08/26 06:21:53;;;;;;;7.20;6.60;;;26.50;65.50;;;;;;5020264;28;20482;-85
2023/08/26 06:24:21;;;;;;;6.90;6.30;;;26.60;65.40;;;;;;5013273;28;20432;-85
2023/08/26 06:26:49;;;;;;;7.17;6.47;;;26.60;65.20;;;;;;5018801;28;20491;-84
2023/08/26 06:29:19;;;;;;;7.33;6.63;;;26.60;65.20;;;;;;5019665;28;20462;-84
2023/08/26 06:31:47;;;;;;;7.53;6.77;;;26.60;65.00;;;;;;5019822;28;20544;-84
2023/08/26 06:34:16;;;;;;;7.47;6.80;;;26.70;65.00;;;;;;5017199;28;20541;-85
2023/08/26 06:36:45;;;;;;;7.10;6.50;;;26.70;64.70;;;;;;5015708;28;20533;-85
2023/08/26 06:39:13;;;;;;;7.07;6.47;;;26.80;64.90;;;;;;5015094;28;20431;-84
2023/08/26 06:41:42;;;;;;;8.27;7.27;;;26.80;64.30;;;;;;5006586;28;20455;-84
2023/08/26 06:44:10;;;;;;;6.97;6.37;;;26.80;64.80;;;;;;5014686;28;20415;-83
2023/08/26 06:46:40;;;;;;;6.47;5.97;;;26.80;64.60;;;;;;5014195;28;20431;-83
2023/08/26 06:49:08;;;;;;;9.00;6.03;;;26.80;64.80;;;;;;5014342;28;20430;-83
2023/08/26 06:51:38;;;;;;;6.50;5.90;;;26.90;64.70;;;;;;5014426;28;20501;-82
2023/08/26 06:54:06;;;;;;;6.47;5.87;;;26.90;64.50;;;;;;5015776;28;20419;-84
2023/08/26 06:56:34;;;;;;;6.97;6.37;;;27.00;64.50;;;;;;5016807;28;20563;-84
2023/08/26 06:59:02;;;;;;;6.40;5.90;;;27.00;64.40;;;;;;5017532;28;20446;-84
2023/08/26 07:01:33;;;;;;;6.03;5.57;;;27.00;64.10;;;;;;5016736;28;20423;-83
2023/08/26 07:04:05;;;;;;;6.30;5.80;;;27.00;64.40;;;;;;5019913;28;20481;-85
2023/08/26 07:06:33;;;;;;;6.00;5.50;;;27.00;64.10;;;;;;5015704;28;20438;-83
2023/08/26 07:09:04;;;;;;;5.37;4.87;;;27.10;64.20;;;;;;5014840;28;20423;-81
2023/08/26 07:11:32;;;;;;;5.73;4.60;;;26.70;62.30;;;;;;5014516;28;20423;-82
2023/08/26 07:14:00;;;;;;;9.13;5.20;;;25.70;64.50;;;;;;5014004;28;20454;-82
2023/08/26 07:16:29;;;;;;;9.13;6.07;;;24.60;67.40;;;;;;5016837;28;20450;-84
2023/08/26 07:18:57;;;;;;;8.57;5.50;;;24.10;70.00;;;;;;5028049;28;20466;-83
2023/08/26 07:21:26;;;;;;;68.23;44.23;;;23.70;71.30;;;;;;5010803;28;20449;-83
2023/08/26 07:23:54;;;;;;;10.83;7.47;;;23.60;74.60;;;;;;5010785;28;20454;-83
2023/08/26 07:26:23;;;;;;;15.40;7.23;;;23.40;73.30;;;;;;5012733;28;20460;-82
2023/08/26 07:28:53;;;;;;;7.50;6.40;;;23.30;74.10;;;;;;5013992;28;20471;-82
2023/08/26 07:31:21;;;;;;;10.07;6.37;;;23.20;75.30;;;;;;5013798;28;20447;-82
2023/08/26 07:33:49;;;;;;;32.97;19.83;;;22.90;76.80;;;;;;5016743;28;20452;-82
2023/08/26 07:36:17;;;;;;;34.83;21.50;;;22.80;77.00;;;;;;5014468;28;20460;-83
2023/08/26 07:38:45;;;;;;;18.20;9.53;;;22.80;80.00;;;;;;5015839;28;20506;-82
2023/08/26 07:41:13;;;;;;;11.57;7.63;;;22.70;82.00;;;;;;5016664;28;20453;-82
2023/08/26 07:43:43;;;;;;;14.33;9.73;;;22.70;81.10;;;;;;5015308;28;20548;-81
2023/08/26 07:46:11;;;;;;;9.27;7.10;;;22.90;80.80;;;;;;5015436;28;20465;-82
2023/08/26 07:48:42;;;;;;;10.30;6.17;;;23.20;82.50;;;;;;5016739;28;20480;-83
2023/08/26 07:51:10;;;;;;;8.20;6.70;;;23.00;78.60;;;;;;5015333;28;20465;-82
2023/08/26 07:53:38;;;;;;;10.40;7.80;;;23.10;81.10;;;;;;5020115;28;20475;-81
2023/08/26 07:56:06;;;;;;;16.87;9.63;;;23.20;79.80;;;;;;5020356;28;20491;-81
2023/08/26 07:58:33;;;;;;;8.87;6.67;;;23.60;80.10;;;;;;5016313;28;20512;-82
2023/08/26 08:01:03;;;;;;;9.30;6.80;;;23.90;76.30;;;;;;5016641;28;20427;-83
2023/08/26 08:03:32;;;;;;;7.30;6.30;;;23.70;76.80;;;;;;5016035;28;20459;-83
2023/08/26 08:06:00;;;;;;;8.97;6.33;;;23.70;77.20;;;;;;5014030;28;20465;-82
2023/08/26 08:08:28;;;;;;;9.50;7.43;;;23.60;78.70;;;;;;5018150;28;20444;-82
2023/08/26 08:10:56;;;;;;;13.50;9.90;;;23.40;78.50;;;;;;5016185;28;20403;-83
2023/08/26 08:13:24;;;;;;;17.83;9.17;;;23.90;79.00;;;;;;5017541;28;20498;-83
2023/08/26 08:15:51;;;;;;;13.97;6.77;;;23.80;79.70;;;;;;5014662;28;20515;-83
2023/08/26 08:18:21;;;;;;;13.40;8.30;;;23.80;77.50;;;;;;5018755;28;20451;-82
2023/08/26 08:20:48;;;;;;;11.70;7.30;;;24.00;79.10;;;;;;5019170;28;20475;-82
2023/08/26 08:23:16;;;;;;;11.73;6.00;;;24.00;77.70;;;;;;5019750;28;20535;-82
2023/08/26 08:25:45;;;;;;;15.63;10.77;;;24.00;76.40;;;;;;5018824;28;20495;-82
2023/08/26 08:28:13;;;;;;;18.40;6.07;;;23.80;76.10;;;;;;5019600;28;20452;-81
2023/08/26 08:30:40;;;;;;;12.23;7.13;;;23.80;77.30;;;;;;5018742;28;20469;-83
2023/08/26 08:33:09;;;;;;;10.23;7.57;;;23.70;76.10;;;;;;5019863;28;20442;-83
2023/08/26 08:35:38;;;;;;;14.33;10.53;;;23.60;76.90;;;;;;5012805;28;20528;-83
2023/08/26 08:38:06;;;;;;;14.17;10.30;;;23.40;78.10;;;;;;5018216;28;20447;-82
2023/08/26 08:40:34;;;;;;;6.40;5.50;;;23.10;78.00;;;;;;5018378;28;20479;-82
2023/08/26 08:43:02;;;;;;;6.53;4.67;;;23.00;76.40;;;;;;5020508;28;21002;-82
2023/08/26 08:45:30;;;;;;;6.63;4.30;;;22.90;75.30;;;;;;5020801;28;20484;-83
2023/08/26 08:47:58;;;;;;;6.60;3.70;;;22.60;74.20;;;;;;5016469;28;20443;-83
2023/08/26 08:50:27;;;;;;;5.37;3.57;;;22.40;74.40;;;;;;5020217;28;20441;-82
2023/08/26 08:52:57;;;;;;;6.07;3.30;;;22.30;73.60;;;;;;5018426;28;20444;-81
2023/08/26 08:55:26;;;;;;;9.47;4.10;;;22.20;73.20;;;;;;5017498;28;20465;-83
2023/08/26 08:57:54;;;;;;;8.07;4.87;;;22.20;72.80;;;;;;5018257;28;20472;-83
2023/08/26 09:00:24;;;;;;;3.67;3.33;;;22.40;74.10;;;;;;5017746;28;20452;-82
2023/08/26 09:02:52;;;;;;;7.90;5.67;;;22.60;72.90;;;;;;5017581;28;20480;-82
2023/08/26 09:05:20;;;;;;;3.80;3.50;;;22.70;73.20;;;;;;5019130;28;20466;-83
2023/08/26 09:07:48;;;;;;;4.07;3.10;;;22.60;71.90;;;;;;5019423;28;20471;-82
2023/08/26 09:10:18;;;;;;;3.93;3.50;;;22.70;71.60;;;;;;5019045;28;20450;-83
2023/08/26 09:12:46;;;;;;;4.93;4.53;;;22.80;73.00;;;;;;5019395;28;20468;-82
2023/08/26 09:15:14;;;;;;;5.67;5.00;;;22.90;73.60;;;;;;5018115;28;20562;-81
2023/08/26 09:17:45;;;;;;;6.80;5.10;;;22.90;72.20;;;;;;5018790;28;20439;-82
2023/08/26 09:20:12;;;;;;;12.77;9.83;;;23.00;72.80;;;;;;5024497;28;20472;-81
2023/08/26 09:22:41;;;;;;;6.60;5.40;;;23.30;74.60;;;;;;5020530;28;20449;-83
2023/08/26 09:25:09;;;;;;;10.17;6.20;;;23.20;74.50;;;;;;5012503;28;20583;-83
2023/08/26 09:27:57;;;;;;;9.73;7.90;;;23.10;73.20;;;;;;5019721;28;20472;-83
2023/08/26 09:30:30;;;;;;;10.80;7.20;;;23.20;76.20;;;;;;5019694;28;20442;-83
2023/08/26 09:33:18;;;;;;;8.37;7.57;;;23.30;76.80;;;;;;5019130;28;20472;-83
2023/08/26 09:35:50;;;;;;;12.43;8.60;;;23.40;75.90;;;;;;5013791;28;20464;-83
2023/08/26 09:38:21;;;;;;;8.67;7.17;;;23.70;74.30;;;;;;5019022;28;20478;-82
2023/08/26 09:40:49;;;;;;;10.97;7.57;;;23.80;74.10;;;;;;5019329;28;20478;-82
2023/08/26 09:43:20;;;;;;;10.43;8.43;;;24.00;72.00;;;;;;5020915;28;20440;-83
2023/08/26 09:45:55;;;;;;;8.50;7.63;;;24.20;73.40;;;;;;5018213;28;20469;-82
2023/08/26 09:48:23;;;;;;;11.33;9.13;;;24.60;72.10;;;;;;5019416;28;20451;-82
2023/08/26 09:50:51;;;;;;;13.50;10.27;;;24.50;70.50;;;;;;5017200;28;20414;-79
2023/08/26 09:53:30;;;;;;;18.03;10.50;;;24.40;69.30;;;;;;5020274;28;20418;-81
2023/08/26 09:55:58;;;;;;;12.00;10.10;;;24.50;70.50;;;;;;5019148;28;20430;-81
2023/08/26 09:58:30;;;;;;;11.70;10.50;;;24.60;70.10;;;;;;5020439;28;20446;-81
2023/08/26 10:00:59;;;;;;;20.10;13.07;;;24.50;69.60;;;;;;5019556;28;20438;-80
2023/08/26 10:03:31;;;;;;;20.33;10.37;;;24.70;69.50;;;;;;5020211;28;20423;-81
2023/08/26 10:06:29;;;;;;;14.40;10.97;;;24.60;69.40;;;;;;5011282;28;20493;-81
2023/08/26 10:09:00;;;;;;;13.20;11.60;;;24.60;69.40;;;;;;5017923;28;20419;-82
2023/08/26 10:12:01;;;;;;;21.57;13.20;;;24.50;70.30;;;;;;5016948;28;20451;-82
2023/08/26 10:14:31;;;;;;;9.57;8.67;;;24.90;69.50;;;;;;5010302;28;20447;-81
2023/08/26 10:20:07;;;;;;;11.30;9.50;;;24.60;68.20;;;;;;5016781;28;20432;-80
2023/08/26 10:22:43;;;;;;;16.20;10.33;;;24.90;68.10;;;;;;5014936;28;20432;-83
2023/08/26 10:25:13;;;;;;;16.93;8.90;;;24.60;66.50;;;;;;5014472;28;20411;-83
2023/08/26 10:27:42;;;;;;;13.50;10.27;;;24.60;67.20;;;;;;4994590;28;20462;-83
2023/08/26 10:30:12;;;;;;;10.03;8.50;;;24.10;65.70;;;;;;4994632;28;20449;-82
2023/08/26 10:32:43;;;;;;;12.33;9.03;;;24.50;67.70;;;;;;4998523;28;20455;-82
2023/08/26 10:38:18;;;;;;;8.90;6.40;;;24.50;64.20;;;;;;4996138;28;20444;-83
2023/08/26 10:41:31;;;;;;;12.57;7.40;;;24.50;62.90;;;;;;4997576;28;20449;-83
2023/08/26 10:44:03;;;;;;;6.20;5.60;;;24.60;61.70;;;;;;4993394;28;20445;-82
2023/08/26 10:47:39;;;;;;;6.90;6.30;;;24.40;61.60;;;;;;5000061;28;20424;-83
2023/08/26 10:50:40;;;;;;;7.73;5.37;;;24.30;61.50;;;;;;4968807;28;20438;-84
2023/08/26 10:53:23;;;;;;;7.73;5.43;;;24.10;62.00;;;;;;4969637;28;20521;-82
2023/08/26 10:55:52;;;;;;;10.40;6.33;;;24.50;62.90;;;;;;4999538;28;20552;-83
2023/08/26 10:58:21;;;;;;;12.90;5.93;;;24.50;62.30;;;;;;5000559;28;20468;-84
2023/08/26 11:00:51;;;;;;;7.07;5.57;;;24.60;63.10;;;;;;4999260;28;20424;-81
2023/08/26 11:03:25;;;;;;;7.50;5.13;;;24.70;65.80;;;;;;4997581;28;20504;-82
2023/08/26 11:09:24;;;;;;;10.07;6.13;;;24.80;61.40;;;;;;4999315;28;20492;-85
2023/08/26 11:12:56;;;;;;;9.63;6.57;;;24.70;62.40;;;;;;4981390;28;20428;-83
2023/08/26 11:15:36;;;;;;;8.53;6.40;;;24.90;59.00;;;;;;4998053;28;20479;-83
2023/08/26 11:18:14;;;;;;;8.40;6.90;;;25.10;61.50;;;;;;4998440;28;20420;-83
2023/08/26 11:20:58;;;;;;;5.23;4.67;;;25.20;58.60;;;;;;4994733;28;20893;-84
2023/08/26 11:23:32;;;;;;;11.97;5.67;;;25.90;61.50;;;;;;4994657;28;20471;-84
2023/08/26 11:26:11;;;;;;;7.73;5.77;;;26.40;59.10;;;;;;4993102;28;20435;-84
2023/08/26 11:32:44;;;;;;;6.43;5.60;;;27.80;54.80;;;;;;4984113;28;20439;-84
2023/08/26 11:35:19;;;;;;;4.80;4.40;;;27.90;54.20;;;;;;4989471;28;20438;-83
2023/08/26 11:38:33;;;;;;;5.00;4.50;;;29.00;52.40;;;;;;4985798;28;20431;-84
2023/08/26 11:45:02;;;;;;;8.83;6.77;;;31.40;46.90;;;;;;5009786;28;21002;-87
2023/08/26 11:47:55;;;;;;;5.27;4.00;;;32.20;44.60;;;;;;4969287;28;20464;-85
2023/08/26 11:50:52;;;;;;;4.03;3.73;;;32.40;44.30;;;;;;4965159;28;20433;-85
2023/08/26 11:53:59;;;;;;;6.20;4.80;;;33.50;43.40;;;;;;4991714;28;20460;-84
2023/08/26 12:03:54;;;;;;;;;;;;;;;;;;;;;
2023/08/26 12:11:07;;;;;;;5.13;3.50;;;32.50;42.20;;;;;;4995710;28;20457;-85
2023/08/26 12:14:40;;;;;;;3.90;3.07;;;31.30;43.50;;;;;;4993601;28;20444;-86
2023/08/26 12:25:58;;;;;;;3.50;3.20;;;30.00;43.30;;;;;;4992074;28;20477;-86
2023/08/26 12:32:46;;;;;;;3.60;2.27;;;33.50;41.60;;;;;;4968711;28;20441;-88
2023/08/26 12:40:21;;;;;;;4.80;1.90;;;36.30;37.00;;;;;;4737972;30;20484;-85
2023/08/26 12:43:20;;;;;;;6.63;1.77;;;36.40;34.00;;;;;;4735059;30;20459;-83
2023/08/26 12:45:53;;;;;;;3.00;1.73;;;36.40;34.20;;;;;;4743978;30;20487;-88
2023/08/26 12:52:28;;;;;;;4.33;3.60;;;37.20;36.00;;;;;;4732952;30;20446;-87
2023/08/26 12:59:33;;;;;;;1.70;1.60;;;38.10;32.60;;;;;;4873333;29;20443;-87
2023/08/26 13:09:23;;;;;;;4.73;1.90;;;32.60;35.40;;;;;;4995533;28;20542;-84
2023/08/26 13:12:05;;;;;;;4.70;2.00;;;31.00;39.60;;;;;;4996684;28;20552;-85
2023/08/26 13:14:38;;;;;;;4.53;2.23;;;30.70;40.90;;;;;;5001660;28;20432;-82
2023/08/26 13:17:23;;;;;;;;;;;;;;;;;;;;;
2023/08/26 13:19:58;;;;;;;3.00;1.80;;;32.60;39.90;;;;;;5000335;28;20507;-83
2023/08/26 13:22:33;;;;;;;5.20;1.50;;;34.10;36.00;;;;;;4993009;28;20445;-83
2023/08/26 13:25:25;;;;;;;1.47;1.37;;;32.60;36.50;;;;;;5015128;28;20444;-85
2023/08/26 13:28:00;;;;;;;1.53;1.43;;;30.50;39.00;;;;;;5018104;28;20483;-82
2023/08/26 13:30:39;;;;;;;1.63;1.47;;;31.10;40.90;;;;;;5007620;28;20499;-83
2023/08/26 13:33:19;;;;;;;2.57;1.23;;;32.20;38.80;;;;;;5005639;28;20858;-81
2023/08/26 13:35:55;;;;;;;2.20;1.23;;;31.40;38.90;;;;;;5006779;28;20535;-83
2023/08/26 13:38:43;;;;;;;2.73;1.40;;;31.70;38.60;;;;;;4997832;28;20437;-81
2023/08/26 13:41:11;;;;;;;1.60;1.50;;;31.80;39.40;;;;;;5005420;28;20485;-83
2023/08/26 13:43:52;;;;;;;4.90;1.53;;;32.20;39.00;;;;;;5002219;28;20456;-83
2023/08/26 13:50:03;;;;;;;3.27;1.20;;;31.60;37.90;;;;;;4983649;28;20480;-82
2023/08/26 13:52:33;;;;;;;3.23;1.70;;;31.30;38.10;;;;;;4998779;28;20449;-82
2023/08/26 13:58:48;;;;;;;6.87;1.43;;;28.80;41.60;;;;;;5000808;28;20411;-83
2023/08/26 14:01:41;;;;;;;3.07;1.40;;;28.20;43.50;;;;;;4990728;28;20403;-81
2023/08/26 14:04:25;;;;;;;3.53;1.10;;;28.90;42.60;;;;;;5012674;28;20427;-84
2023/08/26 14:07:37;;;;;;;3.07;1.10;;;28.90;41.30;;;;;;5002653;28;20826;-82
2023/08/26 14:13:40;;;;;;;3.23;1.33;;;28.60;42.70;;;;;;4995732;28;20437;-83
2023/08/26 14:22:17;;;;;;;2.60;1.10;;;28.00;41.80;;;;;;5000470;28;20415;-83